Latest Weather Observations for Strathalbyn

IDS60901

Issued at 9:35 pm CST Tuesday 30 September 2014 (issued every 10 minutes, with the page automatically refreshed every 10 minutes)

About weather observations | Map of Adelaide area stations | Latest observations for Adelaide area | Other Formats
Station Details ID: 024580 Name: STRATHALBYN RACECOURSE Lat: -35.28 Lon: 138.89 Height: 58.0 m
Data from the previous 72 hours. | See also: Recent months at Strathalbyn
Date/Time
CST
Tmp

°C
App
Tmp
°C
Dew
Point
°C
Rel
Hum
%
Delta-T

°C
Wind Press
QNH
hPa
Press
MSL
hPa
Rain
since
9 am
mm
Dir
 
Spd
km/h
Gust
km/h
Spd
kts
Gust
kts
30/09:30pm 10.4 7.8 6.0 74 2.0 S 9 11 5 6 1021.6 - 0.4
30/09:00pm 10.5 7.4 5.5 71 2.3 WSW 11 17 6 9 1021.1 1021.1 0.4
30/08:30pm 11.3 6.7 5.8 69 2.6 WSW 19 28 10 15 1020.6 - 0.4
30/08:00pm 11.3 7.2 6.2 71 2.4 SW 17 22 9 12 1020.3 - 0.4
30/07:30pm 12.4 9.0 5.8 64 3.1 SW 13 19 7 10 1019.5 - 0.4
30/07:00pm 13.3 9.7 6.9 65 3.1 WSW 15 22 8 12 1018.7 - 0.4
30/06:30pm 14.0 9.6 7.5 65 3.2 W 20 30 11 16 1018.2 - 0.4
30/06:00pm 14.6 9.4 7.4 62 3.5 W 24 35 13 19 1017.7 1017.8 0.4
30/05:30pm 15.2 9.5 6.7 57 4.2 W 26 43 14 23 1017.1 - 0.4
30/05:00pm 15.8 9.9 7.3 57 4.2 W 28 41 15 22 1016.6 - 0.4
30/04:30pm 16.3 10.1 7.8 57 4.3 W 30 43 16 23 1016.1 - 0.4
30/04:00pm 16.7 10.3 8.4 58 4.2 W 32 46 17 25 1015.7 - 0.4
30/03:30pm 16.8 10.4 9.2 61 4.0 W 33 46 18 25 1015.4 - 0.4
30/03:00pm 15.5 9.6 10.5 72 2.6 W 32 50 17 27 1015.3 1015.4 0.4
30/02:37pm 14.8 9.4 12.3 85 1.4 WSW 32 50 17 27 1015.1 - 0.4
30/02:30pm 15.1 9.6 11.9 81 1.7 W 32 46 17 25 1014.9 - 0.2
30/02:07pm 15.2 8.9 11.2 77 2.1 WSW 35 56 19 30 1014.6 - 0.0
30/02:00pm 18.1 11.8 11.0 63 3.8 W 35 52 19 28 1014.5 - 0.0
30/01:30pm 16.9 9.7 10.5 66 3.4 W 39 59 21 32 1014.1 - 0.0
30/01:00pm 19.0 10.1 9.2 53 5.2 W 46 69 25 37 1013.5 - 0.0
30/12:30pm 18.6 9.4 8.0 50 5.4 W 46 70 25 38 1013.3 - 0.0
30/12:01pm 18.7 9.5 8.1 50 5.5 W 46 65 25 35 1012.9 - 0.0
30/12:00pm 18.6 9.5 8.3 51 5.3 W 46 63 25 34 1012.9 1012.9 0.0
30/11:30am 19.6 10.6 8.9 50 5.6 W 46 69 25 37 1012.7 - 0.0
30/11:00am 19.8 12.2 9.1 50 5.7 W 39 65 21 35 1012.3 - 0.0
30/10:30am 18.3 9.7 8.8 54 4.9 W 44 67 24 36 1012.5 - 0.0
30/10:00am 18.4 9.9 8.7 53 5.0 W 43 61 23 33 1012.3 - 0.0
30/09:30am 18.5 10.9 9.0 54 5.0 W 39 57 21 31 1012.0 - 0.0
30/09:00am 18.2 11.3 9.0 55 4.8 W 35 54 19 29 1011.8 1011.8 0.0
30/08:31am 18.0 11.6 8.6 54 4.9 W 32 50 17 27 1011.6 - 0.0
30/08:30am 18.0 11.6 8.6 54 4.9 W 32 46 17 25 1011.6 - 0.0
30/08:00am 18.1 11.9 7.8 51 5.3 WNW 30 48 16 26 1011.4 - 0.0
30/07:53am 18.1 12.2 7.5 50 5.4 W 28 59 15 32 1011.9 - 0.0
30/07:30am 17.4 13.8 8.3 55 4.7 WNW 17 30 9 16 1011.6 - 0.0
30/07:00am 16.1 13.0 7.3 56 4.4 N 13 20 7 11 1010.6 - 0.0
30/06:30am 11.9 9.3 7.8 76 2.0 NNW 11 15 6 8 1010.9 - 0.0
30/06:00am 10.9 7.5 7.8 81 1.5 NNW 15 19 8 10 1010.9 1010.9 0.0
30/05:30am 9.1 5.5 6.9 86 1.0 NNW 15 19 8 10 1010.3 - 0.0
30/05:00am 7.4 4.7 5.7 89 0.8 NNW 9 15 5 8 1010.4 - 0.0
30/04:30am 9.0 8.4 7.5 90 0.7 CALM 0 0 0 0 1010.4 - 0.0
30/04:00am 9.0 8.4 7.5 90 0.7 CALM 0 0 0 0 1010.5 - 0.0
30/03:30am 8.7 6.3 7.0 89 0.8 NNW 9 11 5 6 1010.6 - 0.0
30/03:00am 9.8 6.9 8.1 89 0.8 NW 13 15 7 8 1010.8 1010.8 0.0
30/02:30am 10.1 7.6 8.4 89 0.8 NW 11 13 6 7 1011.3 - 0.0
30/02:00am 11.1 8.4 9.0 87 1.0 NNW 13 15 7 8 1011.7 - 0.0
30/01:30am 11.5 8.5 9.4 87 1.1 NW 15 19 8 10 1012.2 - 0.0
30/01:00am 11.2 8.2 9.1 87 1.0 NNW 15 17 8 9 1012.6 - 0.0
30/12:30am 11.6 9.0 9.2 85 1.2 NNW 13 17 7 9 1013.0 - 0.0
30/12:00am 12.5 9.7 10.0 85 1.3 NW 15 20 8 11 1013.5 1013.5 0.0
 
Date/Time
CST
Tmp

°C
App
Tmp
°C
Dew
Point
°C
Rel
Hum
%
Delta-T

°C
Wind Press
QNH
hPa
Press
MSL
hPa
Rain
since
9 am
mm
Dir
 
Spd
km/h
Gust
km/h
Spd
kts
Gust
kts
29/11:30pm 13.0 9.8 10.0 82 1.5 WNW 17 20 9 11 1013.9 - 0.0
29/11:00pm 13.4 9.9 10.2 81 1.7 WNW 19 26 10 14 1014.0 - 0.0
29/10:30pm 13.5 9.8 10.1 80 1.8 WNW 20 28 11 15 1014.0 - 0.0
29/10:00pm 13.2 10.7 9.8 80 1.7 W 13 20 7 11 1014.1 - 0.0
29/09:30pm 12.1 11.7 8.4 78 1.8 CALM 0 6 0 3 1014.3 - 0.0
29/09:00pm 12.4 10.7 8.3 76 2.0 SW 7 9 4 5 1014.1 1014.1 0.0
29/08:30pm 13.0 11.1 9.1 77 2.0 SW 9 13 5 7 1014.1 - 0.0
29/08:00pm 11.9 9.9 7.0 72 2.4 WNW 7 9 4 5 1013.6 - 0.0
29/07:30pm 13.1 11.2 6.7 65 3.1 WNW 6 11 3 6 1013.2 - 0.0
29/07:00pm 14.6 12.3 7.6 63 3.5 WNW 9 11 5 6 1013.0 - 0.0
29/06:30pm 15.7 14.1 8.0 60 3.9 WNW 6 7 3 4 1012.7 - 0.0
29/06:00pm 17.0 15.3 8.2 56 4.5 WNW 7 11 4 6 1012.6 1012.6 0.0
29/05:30pm 18.2 14.9 8.2 52 5.1 NW 15 22 8 12 1012.6 - 0.0
29/05:00pm 18.8 14.2 8.2 50 5.5 WNW 22 35 12 19 1012.5 - 0.0
29/04:30pm 19.1 14.2 8.4 50 5.6 WNW 24 35 13 19 1012.5 - 0.0
29/04:00pm 19.4 13.3 8.4 49 5.7 WNW 30 41 16 22 1012.4 - 0.0
29/03:30pm 20.0 13.8 8.0 46 6.2 WNW 30 41 16 22 1012.3 - 0.0
29/03:00pm 20.3 14.7 7.3 43 6.7 WNW 26 37 14 20 1012.5 1012.5 0.0
29/02:30pm 19.8 14.0 7.9 46 6.1 WNW 28 39 15 21 1012.5 - 0.0
29/02:00pm 20.2 14.8 7.9 45 6.4 WNW 26 41 14 22 1012.8 - 0.0
29/01:30pm 20.1 14.2 7.5 44 6.5 NW 28 39 15 21 1013.3 - 0.0
29/01:00pm 20.1 14.3 7.8 45 6.4 NW 28 39 15 21 1013.6 - 0.0
29/12:30pm 20.0 14.5 7.7 45 6.3 NW 26 39 14 21 1013.8 - 0.0
29/12:00pm 19.5 14.5 7.9 47 6.0 NW 24 37 13 20 1014.1 1014.1 0.0
29/11:30am 19.5 14.5 7.9 47 6.0 NW 24 33 13 18 1014.6 - 0.0
29/11:00am 17.9 13.3 8.2 53 5.0 WNW 22 30 12 16 1015.0 - 0.0
29/10:30am 17.5 13.4 8.6 56 4.6 WNW 20 28 11 15 1015.2 - 0.0
29/10:00am 17.3 12.4 8.4 56 4.6 NW 24 33 13 18 1015.2 - 0.0
29/09:30am 16.3 12.6 10.2 67 3.2 NW 20 32 11 17 1015.4 - 0.0
29/09:00am 17.3 14.6 10.4 64 3.7 WNW 15 24 8 13 1015.1 1015.2 0.0
29/08:30am 15.6 12.3 9.5 67 3.2 W 17 24 9 13 1015.1 - 0.0
29/08:00am 15.7 13.0 10.2 70 2.9 WNW 15 20 8 11 1014.9 - 0.0
29/07:30am 15.1 13.5 10.3 73 2.5 W 9 13 5 7 1014.6 - 0.0
29/07:00am 14.5 12.5 10.3 76 2.2 W 11 17 6 9 1014.7 - 0.0
29/06:30am 13.6 11.2 10.0 79 1.9 WNW 13 20 7 11 1014.4 - 0.0
29/06:00am 12.6 10.8 9.4 81 1.6 W 9 13 5 7 1014.3 1014.4 0.0
29/05:30am 13.2 10.6 9.5 78 1.9 WSW 13 20 7 11 1013.9 - 0.0
29/05:00am 13.5 10.6 9.6 77 2.0 W 15 22 8 12 1013.8 - 0.0
29/04:30am 13.5 10.2 9.6 77 2.0 W 17 24 9 13 1013.4 - 0.0
29/04:00am 13.1 10.9 9.2 77 2.0 W 11 17 6 9 1013.3 - 0.0
29/03:30am 13.3 10.3 9.4 77 2.0 W 15 20 8 11 1013.2 - 0.0
29/03:00am 13.2 9.8 9.3 77 2.0 WNW 17 24 9 13 1013.1 1013.1 0.0
29/02:30am 13.0 10.7 8.9 76 2.1 NW 11 15 6 8 1013.1 - 0.0
29/02:00am 13.3 10.3 9.4 77 2.0 W 15 19 8 10 1013.1 - 0.0
29/01:30am 13.7 11.5 9.4 75 2.2 WNW 11 20 6 11 1013.4 - 0.0
29/01:00am 14.2 9.2 9.4 73 2.5 W 26 39 14 21 1013.1 - 0.0
29/12:41am 14.2 8.7 9.2 72 2.6 W 28 46 15 25 1013.1 - 0.0
29/12:30am 14.1 10.1 9.1 72 2.5 W 20 33 11 18 1013.4 - 0.0
29/12:00am 14.5 8.6 9.1 70 2.8 W 30 48 16 26 1012.8 1012.8 0.0
 
Date/Time
CST
Tmp

°C
App
Tmp
°C
Dew
Point
°C
Rel
Hum
%
Delta-T

°C
Wind Press
QNH
hPa
Press
MSL
hPa
Rain
since
9 am
mm
Dir
 
Spd
km/h
Gust
km/h
Spd
kts
Gust
kts
28/11:48pm 14.7 8.3 9.3 70 2.8 W 33 54 18 29 1012.9 - 0.0
28/11:30pm 14.7 8.8 9.1 69 2.9 W 30 43 16 23 1013.1 - 0.0
28/11:14pm 14.8 8.5 9.0 68 3.0 W 32 52 17 28 1013.0 - 0.0
28/11:00pm 14.5 9.3 8.9 69 2.9 W 26 46 14 25 1013.1 - 0.0
28/10:30pm 14.8 8.6 9.2 69 2.9 W 32 52 17 28 1013.0 - 0.0
28/10:26pm 14.7 9.2 9.1 69 2.9 W 28 52 15 28 1013.0 - 0.0
28/10:00pm 14.4 11.4 9.2 71 2.7 W 15 26 8 14 1013.0 - 0.0
28/09:30pm 14.6 10.9 9.6 72 2.6 WSW 19 32 10 17 1012.9 - 0.0
28/09:00pm 14.6 10.6 9.2 70 2.8 WSW 20 28 11 15 1012.9 1012.9 0.0
28/08:30pm 14.7 10.0 9.3 70 2.8 WSW 24 39 13 21 1012.6 - 0.0
28/08:00pm 14.9 10.5 9.1 68 3.0 WSW 22 35 12 19 1012.0 - 0.0
28/07:30pm 14.8 11.0 9.2 69 2.9 WSW 19 35 10 19 1011.4 - 0.0
28/07:00pm 15.1 11.8 8.1 63 3.5 WSW 15 26 8 14 1010.6 - 0.0
28/06:30pm 15.4 11.3 8.6 64 3.5 WSW 20 37 11 20 1009.8 - 0.0
28/06:00pm 16.2 11.9 7.9 58 4.2 W 20 30 11 16 1009.2 1009.2 0.0
28/05:30pm 17.4 13.0 7.5 52 5.0 W 20 32 11 17 1008.8 - 0.0
28/05:00pm 18.3 12.6 6.8 47 5.8 W 26 43 14 23 1008.3 - 0.0
28/04:31pm 19.7 13.6 6.8 43 6.5 W 28 46 15 25 1007.7 - 0.0
28/04:30pm 19.6 13.1 6.3 42 6.7 W 30 46 16 25 1007.7 - 0.0
28/04:06pm 20.7 13.9 7.0 41 7.0 W 32 52 17 28 1007.1 - 0.0
28/04:00pm 21.5 15.0 8.1 42 7.0 W 32 46 17 25 1007.0 - 0.0
28/03:30pm 22.3 15.7 8.4 41 7.4 W 33 52 18 28 1006.1 - 0.0
28/03:00pm 25.7 18.3 6.8 30 9.9 W 35 54 19 29 1005.7 1005.7 0.0
28/02:56pm 26.3 18.6 6.9 29 10.2 W 37 56 20 30 1005.7 - 0.0
28/02:46pm 26.6 17.7 5.0 25 11.0 W 41 61 22 33 1005.5 - 0.0
28/02:30pm 28.0 17.9 1.5 18 12.8 NW 44 63 24 34 1005.3 - 0.0
28/02:00pm 28.4 18.7 2.6 19 12.8 NW 43 63 23 34 1005.7 - 0.0
28/01:30pm 28.6 17.8 2.0 18 13.1 NW 48 69 26 37 1005.8 - 0.0
28/01:02pm 28.5 16.9 1.9 18 13.0 NW 52 70 28 38 1005.8 - 0.0
28/01:00pm 28.3 16.5 2.5 19 12.7 NW 54 70 29 38 1005.8 - 0.0
28/12:30pm 27.9 15.9 3.6 21 12.2 NW 56 80 30 43 1006.0 - 0.0
28/12:00pm 27.2 14.1 3.0 21 12.0 NW 61 80 33 43 1006.2 1006.2 0.0
28/11:30am 27.8 15.5 2.1 19 12.6 NW 56 78 30 42 1006.3 - 0.0
28/11:00am 27.6 13.6 1.9 19 12.5 NW 65 95 35 51 1006.2 - 0.0
28/10:30am 28.2 15.7 1.7 18 12.9 NW 57 85 31 46 1006.2 - 0.0
28/10:00am 27.2 14.6 1.6 19 12.4 NNW 57 91 31 49 1006.2 - 0.0
28/09:30am 27.2 14.4 0.1 17 12.7 NNW 57 83 31 45 1006.2 - 0.0
28/09:00am 26.5 14.7 0.3 18 12.3 NNW 52 82 28 44 1006.2 1006.2 0.0
28/08:30am 26.4 14.5 -0.6 17 12.4 NNW 52 72 28 39 1006.4 - 0.0
28/08:00am 26.1 13.6 -1.7 16 12.5 NNW 54 82 29 44 1005.0 - 0.0
28/07:30am 25.7 15.2 -1.2 17 12.2 NNW 44 65 24 35 1005.2 - 0.0
28/07:00am 25.4 15.0 -0.6 18 11.9 NNW 44 74 24 40 1005.5 - 0.0
28/06:30am 25.5 14.6 -1.3 17 12.1 NNW 46 78 25 42 1005.7 - 0.0
28/06:00am 25.1 14.8 -0.9 18 11.8 NNW 43 65 23 35 1006.2 1006.2 0.0
28/05:30am 25.0 16.1 -1.7 17 11.9 N 35 54 19 29 1006.3 - 0.0
28/05:19am 25.0 17.6 -0.9 18 11.7 N 28 46 15 25 1006.5 - 0.0
28/05:00am 23.8 17.0 0.8 22 10.7 N 26 43 14 23 1006.8 - 0.0
28/04:36am 24.3 17.1 0.6 21 11.0 N 28 48 15 26 1007.0 - 0.0
28/04:30am 23.9 17.1 0.9 22 10.7 N 26 41 14 22 1007.1 - 0.0
28/04:00am 24.2 17.6 1.8 23 10.6 N 26 41 14 22 1007.6 - 0.0
28/03:30am 24.4 17.5 2.5 24 10.5 N 28 44 15 24 1008.0 - 0.0
28/03:08am 24.5 17.2 2.6 24 10.6 N 30 48 16 26 1008.2 - 0.0
28/03:00am 24.9 17.3 3.0 24 10.7 N 32 48 17 26 1008.1 1008.1 0.0
28/02:30am 24.7 16.5 2.8 24 10.6 N 35 48 19 26 1008.6 - 0.0
28/02:18am 24.6 17.8 3.3 25 10.4 N 28 50 15 27 1009.1 - 0.0
28/02:00am 23.8 17.8 3.2 26 10.0 N 24 39 13 21 1009.5 - 0.0
28/01:30am 22.9 16.8 2.9 27 9.6 N 24 32 13 17 1010.1 - 0.0
28/01:00am 22.9 16.5 3.4 28 9.4 N 26 37 14 20 1010.4 - 0.0
28/12:30am 22.8 16.8 3.4 28 9.4 N 24 35 13 19 1010.8 - 0.0
28/12:00am 22.4 17.2 3.5 29 9.1 N 20 28 11 15 1011.2 1011.2 0.0
 
Date/Time
CST
Tmp

°C
App
Tmp
°C
Dew
Point
°C
Rel
Hum
%
Delta-T

°C
Wind Press
QNH
hPa
Press
MSL
hPa
Rain
since
9 am
mm
Dir
 
Spd
km/h
Gust
km/h
Spd
kts
Gust
kts
27/11:30pm 21.9 17.0 4.0 31 8.7 N 19 26 10 14 1011.5 - 0.0
27/11:00pm 22.0 17.1 4.1 31 8.7 N 19 24 10 13 1011.9 - 0.0
27/10:30pm 21.1 16.6 4.2 33 8.2 N 17 20 9 11 1012.1 - 0.0
27/10:00pm 20.7 16.2 4.3 34 7.9 N 17 19 9 10 1012.4 - 0.0

Latest Capital City Observations: Canberra | Sydney | Melbourne | Brisbane | Adelaide | Perth | Hobart | Darwin

Other Formats:

Comma delimited format used in spreadsheet applications
http://www.bom.gov.au/fwo/IDS60901/IDS60901.94814.axf

JavaScript Object Notation format (JSON) in row-major order
http://www.bom.gov.au/fwo/IDS60901/IDS60901.94814.json